Time;durP1;ratioP1;P1;durP2;ratioP2;P2;SDS_P1;SDS_P2;PMS_P1;PMS_P2;Temp;Humidity;BMP_temperature;BMP_pressure;BME280_temperature;BME280_humidity;BME280_pressure;Samples;Min_cycle;Max_cycle;Signal;HPM_P1;HPM_P2
2022/02/19 00:00:08;;;;;;;10.05;1.33;;;;;;;-148.22;100.00;64452.44;5086508;28;20047;-67
2022/02/19 00:02:38;;;;;;;5.18;1.17;;;;;;;-148.22;100.00;64452.44;5081015;28;20044;-66
2022/02/19 00:05:05;;;;;;;9.80;1.80;;;;;;;-148.22;100.00;64452.44;5086641;28;20047;-67
2022/02/19 00:07:33;;;;;;;4.20;0.77;;;;;;;-148.22;100.00;64452.44;5086194;28;20066;-67
2022/02/19 00:09:59;;;;;;;4.72;1.05;;;;;;;-148.22;100.00;64452.44;5077492;28;20040;-67
2022/02/19 00:12:26;;;;;;;6.75;0.82;;;;;;;-148.22;100.00;64452.44;5086706;28;20044;-67
2022/02/19 00:14:53;;;;;;;4.50;1.02;;;;;;;-148.22;100.00;64452.44;5079383;28;20040;-67
2022/02/19 00:17:20;;;;;;;6.63;1.27;;;;;;;-148.22;100.00;64452.44;5065732;28;20044;-67
2022/02/19 00:19:48;;;;;;;8.40;1.17;;;;;;;-148.22;100.00;64452.44;5075055;28;20254;-67
2022/02/19 00:22:15;;;;;;;7.05;1.20;;;;;;;-148.22;100.00;64452.44;5076281;28;20043;-67
2022/02/19 00:24:42;;;;;;;6.18;1.13;;;;;;;-148.22;100.00;64452.44;5086791;28;20741;-67
2022/02/19 00:27:09;;;;;;;5.38;0.80;;;;;;;-148.22;100.00;64452.44;5081631;28;20042;-67
2022/02/19 00:29:36;;;;;;;14.35;1.65;;;;;;;-148.22;100.00;64452.44;5082978;28;20525;-67
2022/02/19 00:32:04;;;;;;;9.02;1.40;;;;;;;-148.22;100.00;64452.44;5084807;28;20074;-67
2022/02/19 00:34:31;;;;;;;4.68;1.00;;;;;;;-148.22;100.00;64452.44;5086233;28;20051;-67
2022/02/19 00:36:58;;;;;;;6.35;1.10;;;;;;;-148.22;100.00;64452.44;5085994;28;20043;-67
2022/02/19 00:39:25;;;;;;;8.80;1.75;;;;;;;-148.22;100.00;64452.44;5070432;28;20059;-66
2022/02/19 00:41:52;;;;;;;6.00;1.13;;;;;;;-148.22;100.00;64452.44;5065836;28;20059;-66
2022/02/19 00:44:18;;;;;;;7.38;1.40;;;;;;;-148.22;100.00;64452.44;5068435;28;20048;-67
2022/02/19 00:46:45;;;;;;;2.28;0.52;;;;;;;-148.22;100.00;64452.44;5083105;28;20119;-67
2022/02/19 00:49:12;;;;;;;7.22;1.17;;;;;;;-148.22;100.00;64452.44;5084259;28;20045;-67
2022/02/19 00:51:40;;;;;;;4.32;0.57;;;;;;;-148.22;100.00;64452.44;5089719;28;20073;-67
2022/02/19 00:54:06;;;;;;;5.63;0.85;;;;;;;-148.22;100.00;64452.44;5102146;28;20052;-67
2022/02/19 00:56:33;;;;;;;8.88;1.02;;;;;;;-148.22;100.00;64452.44;5079937;28;20047;-66
2022/02/19 00:58:59;;;;;;;7.60;1.00;;;;;;;-148.22;100.00;64452.44;5066401;28;20071;-67
2022/02/19 01:01:26;;;;;;;5.60;1.33;;;;;;;-148.22;100.00;64452.44;5086344;28;20047;-67
2022/02/19 01:03:59;;;;;;;6.88;1.60;;;;;;;-148.22;100.00;64452.44;5083241;28;20045;-66
2022/02/19 01:06:26;;;;;;;5.80;0.90;;;;;;;-148.22;100.00;64452.44;5086118;28;20044;-67
2022/02/19 01:08:53;;;;;;;7.35;1.00;;;;;;;-148.22;100.00;64452.44;5084208;28;20036;-66
2022/02/19 01:11:22;;;;;;;4.82;1.05;;;;;;;-148.22;100.00;64452.44;5084239;28;20056;-66
2022/02/19 01:13:49;;;;;;;4.82;0.93;;;;;;;-148.22;100.00;64452.44;5081357;28;20050;-67
2022/02/19 01:16:17;;;;;;;3.10;0.57;;;;;;;-148.22;100.00;64452.44;5085504;28;20035;-66
2022/02/19 01:18:46;;;;;;;5.75;1.30;;;;;;;-148.22;100.00;64452.44;5082848;28;20561;-67
2022/02/19 01:21:15;;;;;;;6.95;1.02;;;;;;;-148.22;100.00;64452.44;5083579;28;20047;-67
2022/02/19 01:23:42;;;;;;;4.68;1.13;;;;;;;-148.22;100.00;64452.44;5086794;28;20052;-66
2022/02/19 01:26:08;;;;;;;6.22;1.25;;;;;;;-148.22;100.00;64452.44;5066005;28;20040;-66
2022/02/19 01:28:37;;;;;;;5.10;1.35;;;;;;;-148.22;100.00;64452.44;5068569;28;20040;-67
2022/02/19 01:31:05;;;;;;;6.40;1.00;;;;;;;-148.22;100.00;64452.44;5082630;28;20067;-67
2022/02/19 01:33:32;;;;;;;5.28;0.82;;;;;;;-148.22;100.00;64452.44;5073468;28;20071;-67
2022/02/19 01:36:00;;;;;;;4.35;0.80;;;;;;;-148.22;100.00;64452.44;5047261;28;20127;-66
2022/02/19 01:38:28;;;;;;;7.00;1.08;;;;;;;-148.22;100.00;64452.44;5065762;28;20131;-67
2022/02/19 01:40:55;;;;;;;6.95;1.38;;;;;;;-148.22;100.00;64452.44;5071726;28;20044;-67
2022/02/19 01:43:22;;;;;;;4.40;1.00;;;;;;;-148.22;100.00;64452.44;5085461;28;20036;-67
2022/02/19 01:45:49;;;;;;;6.75;1.02;;;;;;;-148.22;100.00;64452.44;5085204;28;20495;-67
2022/02/19 01:48:16;;;;;;;2.83;0.65;;;;;;;-148.22;100.00;64452.44;5084054;28;20048;-67
2022/02/19 01:50:43;;;;;;;3.08;0.68;;;;;;;-148.22;100.00;64452.44;5084087;28;20043;-67
2022/02/19 01:53:10;;;;;;;5.82;0.98;;;;;;;-148.22;100.00;64452.44;5068259;28;20109;-67
2022/02/19 01:55:42;;;;;;;9.70;1.33;;;;;;;-148.22;100.00;64452.44;5066089;28;20190;-67
2022/02/19 01:58:21;;;;;;;2.28;0.60;;;;;;;-148.22;100.00;64452.44;5088026;28;20739;-66
2022/02/19 02:01:06;;;;;;;4.13;1.13;;;;;;;-148.22;100.00;64452.44;5084345;28;20055;-66
2022/02/19 02:03:56;;;;;;;3.85;0.82;;;;;;;-148.22;100.00;64452.44;5075851;28;20056;-66
2022/02/19 02:06:27;;;;;;;3.53;1.27;;;;;;;-148.22;100.00;64452.44;5079449;28;20044;-66
2022/02/19 02:09:00;;;;;;;2.72;0.77;;;;;;;-148.22;100.00;64452.44;5083025;28;20130;-66
2022/02/19 02:11:33;;;;;;;4.60;0.70;;;;;;;-148.22;100.00;64452.44;5080975;28;20127;-66
2022/02/19 02:13:59;;;;;;;4.47;0.75;;;;;;;-148.22;100.00;64452.44;5081619;28;20041;-67
2022/02/19 02:16:43;;;;;;;12.00;1.00;;;;;;;-148.22;100.00;64452.44;5067261;28;20052;-67
2022/02/19 02:19:11;;;;;;;12.23;2.38;;;;;;;-148.22;100.00;64452.44;5086136;28;20507;-67
2022/02/19 02:21:53;;;;;;;7.13;1.10;;;;;;;-148.22;100.00;64452.44;5079018;28;20048;-66
2022/02/19 02:24:20;;;;;;;6.32;1.08;;;;;;;-148.22;100.00;64452.44;5086226;28;20475;-67
2022/02/19 02:26:48;;;;;;;5.45;1.30;;;;;;;-148.22;100.00;64452.44;5086934;28;20074;-66
2022/02/19 02:29:15;;;;;;;11.52;1.35;;;;;;;-148.22;100.00;64452.44;5085675;28;20043;-67
2022/02/19 02:31:42;;;;;;;5.18;0.90;;;;;;;-148.22;100.00;64452.44;5087139;28;20716;-67
2022/02/19 02:34:11;;;;;;;7.03;1.42;;;;;;;-148.22;100.00;64452.44;5085246;28;20518;-66
2022/02/19 02:36:38;;;;;;;5.60;1.42;;;;;;;-148.22;100.00;64452.44;5068061;28;20041;-66
2022/02/19 02:39:05;;;;;;;7.18;1.20;;;;;;;-148.22;100.00;64452.44;5067937;28;20056;-66
2022/02/19 02:41:33;;;;;;;8.50;1.58;;;;;;;-148.22;100.00;64452.44;5086943;28;20048;-66
2022/02/19 02:44:06;;;;;;;4.93;0.90;;;;;;;-148.22;100.00;64452.44;5088152;28;20043;-66
2022/02/19 02:46:32;;;;;;;6.47;1.13;;;;;;;-148.22;100.00;64452.44;5086932;28;20093;-67
2022/02/19 02:49:03;;;;;;;4.97;1.05;;;;;;;-148.22;100.00;64452.44;5070635;28;20071;-66
2022/02/19 02:51:32;;;;;;;2.40;0.70;;;;;;;-148.22;100.00;64452.44;5073799;28;20071;-66
2022/02/19 02:53:58;;;;;;;7.28;2.10;;;;;;;-148.22;100.00;64452.44;5096211;28;20048;-66
2022/02/19 02:56:28;;;;;;;5.15;1.10;;;;;;;-148.22;100.00;64452.44;5084064;28;20043;-66
2022/02/19 02:58:55;;;;;;;5.55;0.85;;;;;;;-148.22;100.00;64452.44;5084474;28;20046;-66
2022/02/19 03:01:21;;;;;;;7.30;1.52;;;;;;;-148.22;100.00;64452.44;5082716;28;20044;-66
2022/02/19 03:03:48;;;;;;;7.07;1.42;;;;;;;-148.22;100.00;64452.44;5088055;28;20526;-66
2022/02/19 03:06:14;;;;;;;2.97;0.57;;;;;;;-148.22;100.00;64452.44;5073399;28;20405;-66
2022/02/19 03:08:45;;;;;;;5.13;0.93;;;;;;;-148.22;100.00;64452.44;5085875;28;20604;-66
2022/02/19 03:11:13;;;;;;;6.97;1.10;;;;;;;-148.22;100.00;64452.44;5087610;28;20517;-66
2022/02/19 03:13:41;;;;;;;8.00;1.13;;;;;;;-148.22;100.00;64452.44;5085715;28;20470;-66
2022/02/19 03:16:08;;;;;;;3.40;1.10;;;;;;;-148.22;100.00;64452.44;5075110;28;20044;-66
2022/02/19 03:18:36;;;;;;;6.00;1.10;;;;;;;-148.22;100.00;64452.44;5084334;28;20039;-66
2022/02/19 03:21:03;;;;;;;3.65;0.82;;;;;;;-148.22;100.00;64452.44;5080539;28;20071;-66
2022/02/19 03:23:32;;;;;;;5.15;1.50;;;;;;;-148.22;100.00;64452.44;5086220;28;20078;-66
2022/02/19 03:25:59;;;;;;;6.32;1.10;;;;;;;-148.22;100.00;64452.44;5082741;28;20032;-66
2022/02/19 03:28:28;;;;;;;5.10;1.00;;;;;;;-148.22;100.00;64452.44;5065703;28;20132;-66
2022/02/19 03:30:56;;;;;;;3.88;1.20;;;;;;;-148.22;100.00;64452.44;5081572;28;20055;-66
2022/02/19 03:33:43;;;;;;;3.65;0.55;;;;;;;-148.22;100.00;64452.44;5066272;28;20048;-66
2022/02/19 03:36:13;;;;;;;8.40;1.25;;;;;;;-148.22;100.00;64452.44;5066618;28;20105;-66
2022/02/19 03:38:40;;;;;;;6.78;0.90;;;;;;;-148.22;100.00;64452.44;5086154;28;20590;-66
2022/02/19 03:41:12;;;;;;;4.13;0.75;;;;;;;-148.22;100.00;64452.44;5068740;28;20047;-66
2022/02/19 03:43:39;;;;;;;8.25;1.23;;;;;;;-148.22;100.00;64452.44;5078446;28;20072;-66
2022/02/19 03:46:05;;;;;;;6.35;0.85;;;;;;;-148.22;100.00;64452.44;5084798;28;20058;-66
2022/02/19 03:49:02;;;;;;;6.65;0.90;;;;;;;-148.22;100.00;64452.44;5078361;28;20135;-66
2022/02/19 03:51:30;;;;;;;4.53;0.93;;;;;;;-148.22;100.00;64452.44;5072790;28;20047;-66
2022/02/19 03:53:58;;;;;;;3.20;1.10;;;;;;;-148.22;100.00;64452.44;5106484;28;20130;-65
2022/02/19 03:56:28;;;;;;;10.43;1.70;;;;;;;-148.22;100.00;64452.44;5087151;28;20036;-66
2022/02/19 03:59:06;;;;;;;7.53;1.20;;;;;;;-148.22;100.00;64452.44;5084820;28;20120;-66
2022/02/19 04:01:33;;;;;;;6.90;1.67;;;;;;;-148.22;100.00;64452.44;5069948;28;20051;-66
2022/02/19 04:04:06;;;;;;;5.20;1.60;;;;;;;-148.22;100.00;64452.44;5085279;28;20040;-66
2022/02/19 04:06:35;;;;;;;7.32;0.70;;;;;;;-148.22;100.00;64452.44;5070269;28;20148;-66
2022/02/19 04:09:03;;;;;;;5.88;0.75;;;;;;;-148.22;100.00;64452.44;5085637;28;20050;-66
2022/02/19 04:11:30;;;;;;;4.57;1.15;;;;;;;-148.22;100.00;64452.44;5084406;28;20069;-66
2022/02/19 04:13:57;;;;;;;2.78;0.60;;;;;;;-148.22;100.00;64452.44;5065820;28;20512;-66
2022/02/19 04:16:28;;;;;;;3.60;0.60;;;;;;;-148.22;100.00;64452.44;5065255;28;20048;-66
2022/02/19 04:18:57;;;;;;;7.53;1.08;;;;;;;-148.22;100.00;64452.44;5074350;28;20117;-66
2022/02/19 04:21:24;;;;;;;4.25;1.38;;;;;;;-148.22;100.00;64452.44;5082743;28;20142;-66
2022/02/19 04:23:52;;;;;;;9.00;1.35;;;;;;;-148.22;100.00;64452.44;5083842;28;20048;-66
2022/02/19 04:26:19;;;;;;;8.07;1.45;;;;;;;-148.22;100.00;64452.44;5084321;28;20074;-66
2022/02/19 04:28:49;;;;;;;7.90;1.17;;;;;;;-148.22;100.00;64452.44;5085674;28;20051;-66
2022/02/19 04:31:23;;;;;;;7.80;0.90;;;;;;;-148.22;100.00;64452.44;5079072;28;20048;-66
2022/02/19 04:33:58;;;;;;;2.88;0.60;;;;;;;-148.22;100.00;64452.44;5085207;28;20550;-66
2022/02/19 04:36:26;;;;;;;5.43;1.75;;;;;;;-148.22;100.00;64452.44;5083624;28;20040;-66
2022/02/19 04:38:53;;;;;;;4.60;1.20;;;;;;;-148.22;100.00;64452.44;5085444;28;20139;-66
2022/02/19 04:41:24;;;;;;;2.93;0.77;;;;;;;-148.22;100.00;64452.44;5084703;28;20054;-66
2022/02/19 04:43:52;;;;;;;7.13;1.23;;;;;;;-148.22;100.00;64452.44;5084094;28;20309;-66
2022/02/19 04:46:20;;;;;;;4.28;0.80;;;;;;;-148.22;100.00;64452.44;5085119;28;20127;-66
2022/02/19 04:48:46;;;;;;;8.15;0.90;;;;;;;-148.22;100.00;64452.44;5080557;28;20044;-65
2022/02/19 04:51:13;;;;;;;4.20;1.25;;;;;;;-148.22;100.00;64452.44;5071564;28;20044;-66
2022/02/19 04:53:40;;;;;;;13.45;1.83;;;;;;;-148.22;100.00;64452.44;5079964;28;20051;-66
2022/02/19 04:56:07;;;;;;;5.60;1.00;;;;;;;-148.22;100.00;64452.44;5085740;28;20077;-66
2022/02/19 04:58:37;;;;;;;6.18;1.02;;;;;;;-148.22;100.00;64452.44;5070482;28;20068;-66
2022/02/19 05:01:04;;;;;;;5.43;1.33;;;;;;;-148.22;100.00;64452.44;5074860;28;20117;-66
2022/02/19 05:03:49;;;;;;;5.75;0.60;;;;;;;-148.22;100.00;64452.44;5084101;28;20051;-65
2022/02/19 05:06:30;;;;;;;5.32;0.70;;;;;;;-148.22;100.00;64452.44;5078369;28;20093;-66
2022/02/19 05:09:01;;;;;;;6.47;1.00;;;;;;;-148.22;100.00;64452.44;5065639;28;20060;-66
2022/02/19 05:11:32;;;;;;;15.90;2.20;;;;;;;-148.22;100.00;64452.44;5082083;28;20070;-66
2022/02/19 05:14:02;;;;;;;11.93;2.00;;;;;;;-148.22;100.00;64452.44;5078286;28;20638;-66
2022/02/19 05:16:28;;;;;;;6.00;1.17;;;;;;;-148.22;100.00;64452.44;5081487;28;20724;-66
2022/02/19 05:19:01;;;;;;;5.07;0.70;;;;;;;-148.22;100.00;64452.44;5083919;28;20040;-66
2022/02/19 05:21:32;;;;;;;2.60;0.85;;;;;;;-148.22;100.00;64452.44;5072324;28;20093;-66
2022/02/19 05:24:03;;;;;;;6.03;1.13;;;;;;;-148.22;100.00;64452.44;5064591;28;20040;-66
2022/02/19 05:26:39;;;;;;;4.82;1.30;;;;;;;-148.22;100.00;64452.44;5075980;28;20048;-66
2022/02/19 05:29:08;;;;;;;10.73;1.63;;;;;;;-148.22;100.00;64452.44;5075035;28;20074;-66
2022/02/19 05:31:37;;;;;;;4.80;1.13;;;;;;;-148.22;100.00;64452.44;5081413;28;20054;-65
2022/02/19 05:34:13;;;;;;;7.43;1.10;;;;;;;-148.22;100.00;64452.44;5090492;28;20101;-66
2022/02/19 05:36:45;;;;;;;5.57;1.50;;;;;;;-148.22;100.00;64452.44;5070912;28;20037;-66
2022/02/19 05:39:12;;;;;;;8.23;1.17;;;;;;;-148.22;100.00;64452.44;5071339;28;20053;-66
2022/02/19 05:41:40;;;;;;;5.38;0.80;;;;;;;-148.22;100.00;64452.44;5085044;28;20044;-66
2022/02/19 05:44:11;;;;;;;5.03;1.40;;;;;;;-148.22;100.00;64452.44;5088333;28;20045;-66
2022/02/19 05:46:38;;;;;;;9.93;1.75;;;;;;;-148.22;100.00;64452.44;5090877;28;20048;-66
2022/02/19 05:49:05;;;;;;;5.70;1.35;;;;;;;-148.22;100.00;64452.44;5089257;28;20048;-66
2022/02/19 05:51:47;;;;;;;6.53;1.15;;;;;;;-148.22;100.00;64452.44;5082322;28;20032;-66
2022/02/19 05:54:18;;;;;;;9.68;2.05;;;;;;;-148.22;100.00;64452.44;5087255;28;20048;-66
2022/02/19 05:56:51;;;;;;;10.98;1.73;;;;;;;-148.22;100.00;64452.44;5090502;28;20048;-66
2022/02/19 05:59:18;;;;;;;8.15;1.42;;;;;;;-148.22;100.00;64452.44;5085189;28;20519;-66
2022/02/19 06:01:44;;;;;;;5.50;1.05;;;;;;;-148.22;100.00;64452.44;5089677;28;20051;-66
2022/02/19 06:04:11;;;;;;;3.15;0.70;;;;;;;-148.22;100.00;64452.44;5088396;28;20119;-66
2022/02/19 06:06:38;;;;;;;2.58;0.88;;;;;;;-148.22;100.00;64452.44;5090358;28;20585;-66
2022/02/19 06:09:05;;;;;;;6.25;1.45;;;;;;;-148.22;100.00;64452.44;5089653;28;20155;-66
2022/02/19 06:11:35;;;;;;;3.80;1.55;;;;;;;-148.22;100.00;64452.44;5090438;28;20048;-66
2022/02/19 06:14:14;;;;;;;5.95;0.82;;;;;;;-148.22;100.00;64452.44;5071544;28;20131;-66
2022/02/19 06:16:52;;;;;;;4.65;1.00;;;;;;;-148.22;100.00;64452.44;5070714;28;20565;-66
2022/02/19 06:19:21;;;;;;;5.70;1.25;;;;;;;-148.22;100.00;64452.44;5091142;28;20067;-66
2022/02/19 06:21:47;;;;;;;4.80;0.85;;;;;;;-148.22;100.00;64452.44;5086125;28;20481;-66
2022/02/19 06:24:17;;;;;;;5.53;1.00;;;;;;;-148.22;100.00;64452.44;5087828;28;20064;-66
2022/02/19 06:26:43;;;;;;;2.20;0.63;;;;;;;-148.22;100.00;64452.44;5088498;28;20052;-66
2022/02/19 06:29:19;;;;;;;6.28;1.33;;;;;;;-148.22;100.00;64452.44;5082885;28;20138;-66
2022/02/19 06:31:50;;;;;;;8.60;1.50;;;;;;;-148.22;100.00;64452.44;5084550;28;20060;-66
2022/02/19 06:34:17;;;;;;;5.00;0.90;;;;;;;-148.22;100.00;64452.44;5088231;28;20040;-66
2022/02/19 06:36:45;;;;;;;4.78;0.82;;;;;;;-148.22;100.00;64452.44;5092432;28;20044;-66
2022/02/19 06:39:15;;;;;;;1.98;0.47;;;;;;;-148.22;100.00;64452.44;5084010;28;20576;-66
2022/02/19 06:41:42;;;;;;;7.57;1.60;;;;;;;-148.22;100.00;64452.44;5089037;28;20047;-66
2022/02/19 06:44:21;;;;;;;8.25;1.67;;;;;;;-148.22;100.00;64452.44;5064841;28;20044;-66
2022/02/19 06:46:50;;;;;;;6.18;2.20;;;;;;;-148.22;100.00;64452.44;5084992;28;20185;-66
2022/02/19 06:49:17;;;;;;;5.07;1.23;;;;;;;-148.22;100.00;64452.44;5080828;28;20118;-66
2022/02/19 06:51:47;;;;;;;5.07;1.08;;;;;;;-148.22;100.00;64452.44;5083473;28;20040;-66
2022/02/19 06:54:14;;;;;;;7.63;1.60;;;;;;;-148.22;100.00;64452.44;5081463;28;20136;-66
2022/02/19 06:56:40;;;;;;;9.18;1.27;;;;;;;-148.22;100.00;64452.44;5100643;28;20148;-67
2022/02/19 06:59:10;;;;;;;7.15;1.10;;;;;;;-148.22;100.00;64452.44;5093959;28;20066;-66
2022/02/19 07:01:37;;;;;;;7.32;1.83;;;;;;;-148.22;100.00;64452.44;5082389;28;20823;-66
2022/02/19 07:04:04;;;;;;;5.68;1.65;;;;;;;-148.22;100.00;64452.44;5086053;28;20044;-66
2022/02/19 07:06:56;;;;;;;15.30;1.50;;;;;;;-148.22;100.00;64452.44;5086601;28;20084;-66
2022/02/19 07:09:25;;;;;;;4.80;0.77;;;;;;;-148.22;100.00;64452.44;5085937;28;20519;-66
2022/02/19 07:11:56;;;;;;;5.30;0.70;;;;;;;-148.22;100.00;64452.44;5085921;28;20044;-66
2022/02/19 07:14:25;;;;;;;;;;;;;;;-148.22;100.00;64452.44;5072480;28;20040;-66
2022/02/19 07:17:04;;;;;;;2.00;0.60;;;;;;;-148.22;100.00;64452.44;5075070;28;19923;-66
2022/02/19 07:19:34;;;;;;;7.78;1.70;;;;;;;-148.22;100.00;64452.44;5084505;28;20044;-66
2022/02/19 07:22:03;;;;;;;2.03;0.80;;;;;;;-148.22;100.00;64452.44;5085152;28;20075;-66
2022/02/19 07:24:31;;;;;;;4.65;1.25;;;;;;;-148.22;100.00;64452.44;5078022;28;20044;-66
2022/02/19 07:26:58;;;;;;;8.40;1.67;;;;;;;-148.22;100.00;64452.44;5078283;28;20059;-66
2022/02/19 07:29:26;;;;;;;5.38;1.50;;;;;;;-148.22;100.00;64452.44;5074327;28;20085;-66
2022/02/19 07:31:53;;;;;;;7.18;1.05;;;;;;;-148.22;100.00;64452.44;5080512;28;20040;-65
2022/02/19 07:34:19;;;;;;;5.15;1.25;;;;;;;-148.22;100.00;64452.44;5093352;28;20499;-66
2022/02/19 07:36:47;;;;;;;4.70;0.85;;;;;;;-148.22;100.00;64452.44;5082704;28;20075;-65
2022/02/19 07:39:14;;;;;;;2.88;0.95;;;;;;;-148.22;100.00;64452.44;5079917;28;20265;-66
2022/02/19 07:41:47;;;;;;;;;;;;;;;-148.22;100.00;64452.44;5084655;28;20057;-66
2022/02/19 07:44:16;;;;;;;10.45;1.30;;;;;;;-148.22;100.00;64452.44;5084209;28;19927;-66
2022/02/19 07:47:02;;;;;;;5.95;1.33;;;;;;;-148.22;100.00;64452.44;5085012;28;21347;-56
2022/02/19 07:58:45;;;;;;;6.85;1.02;;;;;;;-148.22;100.00;64452.44;5079209;28;20044;-61
2022/02/19 08:01:12;;;;;;;4.72;0.70;;;;;;;-148.22;100.00;64452.44;5076962;28;20067;-57
2022/02/19 08:03:48;;;;;;;8.20;2.05;;;;;;;-148.22;100.00;64452.44;5082672;28;20129;-56
2022/02/19 08:06:15;;;;;;;7.57;0.80;;;;;;;-148.22;100.00;64452.44;5077985;28;20427;-66
2022/02/19 08:08:41;;;;;;;8.52;1.42;;;;;;;-148.22;100.00;64452.44;5078704;28;20076;-66
2022/02/19 08:11:14;;;;;;;6.20;1.30;;;;;;;-148.22;100.00;64452.44;5077216;28;20062;-66
2022/02/19 08:13:41;;;;;;;7.68;1.45;;;;;;;-148.22;100.00;64452.44;5084410;28;20071;-66
2022/02/19 08:16:11;;;;;;;9.88;1.38;;;;;;;-148.22;100.00;64452.44;5078172;28;20035;-66
2022/02/19 08:18:38;;;;;;;5.18;1.30;;;;;;;-148.22;100.00;64452.44;5082793;28;20047;-66
2022/02/19 08:21:05;;;;;;;4.75;1.17;;;;;;;-148.22;100.00;64452.44;5083940;28;20051;-67
2022/02/19 08:23:32;;;;;;;8.55;1.30;;;;;;;-148.22;100.00;64452.44;5083064;28;20051;-66
2022/02/19 08:25:59;;;;;;;10.60;1.55;;;;;;;-148.22;100.00;64452.44;5081101;28;20469;-66
2022/02/19 08:28:26;;;;;;;3.63;1.25;;;;;;;-148.22;100.00;64452.44;5098146;28;20044;-66
2022/02/19 08:30:52;;;;;;;4.95;1.02;;;;;;;-148.22;100.00;64452.44;5076501;28;20105;-66
2022/02/19 08:33:19;;;;;;;7.13;1.58;;;;;;;-148.22;100.00;64452.44;5079863;28;20055;-66
2022/02/19 08:35:46;;;;;;;6.00;1.33;;;;;;;-148.22;100.00;64452.44;5078852;28;20047;-66
2022/02/19 08:38:13;;;;;;;10.40;1.60;;;;;;;-148.22;100.00;64452.44;5073427;28;20044;-66
2022/02/19 08:40:41;;;;;;;9.75;1.90;;;;;;;-148.22;100.00;64452.44;5081067;28;20727;-66
2022/02/19 08:43:08;;;;;;;6.72;1.48;;;;;;;-148.22;100.00;64452.44;5093071;28;20084;-66
2022/02/19 08:45:35;;;;;;;5.13;0.82;;;;;;;-148.22;100.00;64452.44;5075442;28;20059;-66
2022/02/19 08:48:04;;;;;;;10.25;1.58;;;;;;;-148.22;100.00;64452.44;5087116;28;20039;-66
2022/02/19 08:50:33;;;;;;;4.72;0.98;;;;;;;-148.22;100.00;64452.44;5086563;28;20043;-66
2022/02/19 08:53:06;;;;;;;10.98;1.15;;;;;;;-148.22;100.00;64452.44;5096117;28;20044;-66
2022/02/19 08:55:32;;;;;;;5.78;0.98;;;;;;;-148.22;100.00;64452.44;5089494;28;20040;-66
2022/02/19 08:57:59;;;;;;;3.58;0.95;;;;;;;-148.22;100.00;64452.44;5084985;28;20078;-66
2022/02/19 09:00:26;;;;;;;13.75;1.80;;;;;;;-148.22;100.00;64452.44;5082804;28;20126;-67
2022/02/19 09:02:53;;;;;;;7.40;1.13;;;;;;;-148.22;100.00;64452.44;5081302;28;20047;-66
2022/02/19 09:05:20;;;;;;;5.22;1.00;;;;;;;-148.22;100.00;64452.44;5081632;28;20414;-66
2022/02/19 09:07:47;;;;;;;5.85;1.13;;;;;;;-148.22;100.00;64452.44;5083838;28;20050;-67
2022/02/19 09:10:16;;;;;;;2.83;0.90;;;;;;;-148.22;100.00;64452.44;5081490;28;20055;-66
2022/02/19 09:12:46;;;;;;;4.65;1.08;;;;;;;-148.22;100.00;64452.44;5088289;28;20043;-67
2022/02/19 09:15:15;;;;;;;3.45;0.70;;;;;;;-148.22;100.00;64452.44;5078547;28;20044;-67
2022/02/19 09:17:42;;;;;;;5.13;0.80;;;;;;;-148.22;100.00;64452.44;5089125;28;20503;-66
2022/02/19 09:20:10;;;;;;;6.78;1.70;;;;;;;-148.22;100.00;64452.44;5089955;28;20063;-67
2022/02/19 09:22:38;;;;;;;5.40;0.82;;;;;;;-148.22;100.00;64452.44;5081275;28;20143;-66
2022/02/19 09:25:06;;;;;;;3.28;0.85;;;;;;;-148.22;100.00;64452.44;5081449;28;20523;-66
2022/02/19 09:27:33;;;;;;;4.55;0.77;;;;;;;-148.22;100.00;64452.44;5082176;28;20048;-70
2022/02/19 09:30:01;;;;;;;7.30;1.35;;;;;;;-148.22;100.00;64452.44;5082638;28;20055;-71
2022/02/19 09:32:28;;;;;;;6.72;1.10;;;;;;;-148.22;100.00;64452.44;5077229;28;20519;-70
2022/02/19 09:34:55;;;;;;;5.63;0.90;;;;;;;-148.22;100.00;64452.44;5087933;28;20060;-70
2022/02/19 09:37:23;;;;;;;6.43;1.65;;;;;;;-148.22;100.00;64452.44;5086546;28;20072;-71
2022/02/19 09:39:50;;;;;;;6.40;1.05;;;;;;;-148.22;100.00;64452.44;5083578;28;20050;-69
2022/02/19 09:42:17;;;;;;;3.53;1.10;;;;;;;-148.22;100.00;64452.44;5065764;28;20040;-68
2022/02/19 09:44:44;;;;;;;2.65;0.60;;;;;;;-148.22;100.00;64452.44;5083318;28;20059;-69
2022/02/19 09:47:12;;;;;;;6.28;1.05;;;;;;;-148.22;100.00;64452.44;5081782;28;20063;-66
2022/02/19 09:49:39;;;;;;;4.47;1.10;;;;;;;-148.22;100.00;64452.44;5079764;28;20637;-70
2022/02/19 09:52:06;;;;;;;5.20;1.10;;;;;;;-148.22;100.00;64452.44;5082106;28;20044;-74
2022/02/19 09:54:33;;;;;;;6.03;1.02;;;;;;;-148.22;100.00;64452.44;5083187;28;20469;-74
2022/02/19 09:57:00;;;;;;;8.38;1.20;;;;;;;-148.22;100.00;64452.44;5082233;28;20067;-67
2022/02/19 09:59:26;;;;;;;2.53;0.50;;;;;;;-148.22;100.00;64452.44;5079276;28;20036;-63
2022/02/19 10:02:04;;;;;;;7.03;1.05;;;;;;;-148.22;100.00;64452.44;5080852;28;20044;-63
2022/02/19 10:04:30;;;;;;;1.80;0.55;;;;;;;-148.22;100.00;64452.44;5084518;28;20058;-64
2022/02/19 10:06:59;;;;;;;4.53;0.73;;;;;;;-148.22;100.00;64452.44;5075956;28;20080;-63
2022/02/19 10:09:27;;;;;;;6.50;1.27;;;;;;;-148.22;100.00;64452.44;5076670;28;20111;-66
2022/02/19 10:12:08;;;;;;;5.28;1.00;;;;;;;-148.22;100.00;64452.44;5073651;28;20047;-67
2022/02/19 10:14:36;;;;;;;7.88;1.60;;;;;;;-148.22;100.00;64452.44;5070330;28;20055;-64
2022/02/19 10:17:04;;;;;;;6.40;0.75;;;;;;;-148.22;100.00;64452.44;5078857;28;20040;-67
2022/02/19 10:19:45;;;;;;;5.88;1.50;;;;;;;-148.22;100.00;64452.44;5082003;28;20036;-67
2022/02/19 10:22:13;;;;;;;10.50;0.98;;;;;;;-148.22;100.00;64452.44;5071999;28;20131;-63
2022/02/19 10:24:44;;;;;;;4.70;1.02;;;;;;;-148.22;100.00;64452.44;5081774;28;20109;-67
2022/02/19 10:27:11;;;;;;;9.70;1.20;;;;;;;-148.22;100.00;64452.44;5074021;28;20498;-66
2022/02/19 10:29:58;;;;;;;9.60;1.75;;;;;;;-148.22;100.00;64452.44;5079705;28;20039;-64
2022/02/19 10:32:25;;;;;;;4.95;1.25;;;;;;;-148.22;100.00;64452.44;5085422;28;20048;-67
2022/02/19 10:34:55;;;;;;;9.82;0.93;;;;;;;-148.22;100.00;64452.44;5078686;28;20055;-62
2022/02/19 10:37:24;;;;;;;8.25;1.27;;;;;;;-148.22;100.00;64452.44;5082568;28;20036;-62
2022/02/19 10:39:50;;;;;;;6.75;0.90;;;;;;;-148.22;100.00;64452.44;5084864;28;20435;-61
2022/02/19 10:42:18;;;;;;;8.75;1.10;;;;;;;-148.22;100.00;64452.44;5088986;28;20044;-62
2022/02/19 10:44:45;;;;;;;5.03;1.05;;;;;;;-148.22;100.00;64452.44;5077610;28;20048;-63
2022/02/19 10:47:25;;;;;;;7.38;1.35;;;;;;;-148.22;100.00;64452.44;5089427;28;20517;-63
2022/02/19 10:50:07;;;;;;;3.95;0.95;;;;;;;-148.22;100.00;64452.44;5086370;28;20044;-63
2022/02/19 10:52:39;;;;;;;2.58;0.82;;;;;;;-148.22;100.00;64452.44;5100943;28;20131;-65
2022/02/19 10:55:08;;;;;;;8.50;1.38;;;;;;;-148.22;100.00;64452.44;5099313;28;20050;-68
2022/02/19 10:57:37;;;;;;;5.05;1.45;;;;;;;-148.22;100.00;64452.44;5079384;28;20564;-70
2022/02/19 11:00:14;;;;;;;4.05;1.40;;;;;;;-148.22;100.00;64452.44;5098915;28;20040;-67
2022/02/19 11:02:42;;;;;;;4.57;0.68;;;;;;;-148.22;100.00;64452.44;5086594;28;20046;-67
2022/02/19 11:05:11;;;;;;;5.40;1.00;;;;;;;-148.22;100.00;64452.44;5084718;28;20044;-68
2022/02/19 11:07:40;;;;;;;7.80;1.63;;;;;;;-148.22;100.00;64452.44;5080724;28;20040;-69
2022/02/19 11:10:25;;;;;;;14.02;1.52;;;;;;;-148.22;100.00;64452.44;5083384;28;20098;-68
2022/02/19 11:12:52;;;;;;;5.63;1.45;;;;;;;-148.22;100.00;64452.44;5086295;28;20097;-68
2022/02/19 11:15:19;;;;;;;6.47;1.20;;;;;;;-148.22;100.00;64452.44;5082782;28;20102;-64
2022/02/19 11:17:47;;;;;;;3.40;0.93;;;;;;;-148.22;100.00;64452.44;5079214;28;20044;-62
2022/02/19 11:20:14;;;;;;;7.18;1.10;;;;;;;-148.22;100.00;64452.44;5084946;28;20048;-69
2022/02/19 11:22:44;;;;;;;2.33;0.80;;;;;;;-148.22;100.00;64452.44;5071571;28;20040;-67
2022/02/19 11:25:14;;;;;;;4.97;0.85;;;;;;;-148.22;100.00;64452.44;5085390;28;20073;-69
2022/02/19 11:27:56;;;;;;;5.32;1.33;;;;;;;-148.22;100.00;64452.44;5086287;28;20055;-67